createdAt,value
2023-01-26T00:00:54.848Z,19.67
2023-01-26T00:03:22.290Z,18.83
2023-01-26T00:05:48.936Z,21.43
2023-01-26T00:08:15.703Z,24.47
2023-01-26T00:10:42.964Z,19.87
2023-01-26T00:13:10.557Z,22.27
2023-01-26T00:15:37.724Z,20.73
2023-01-26T00:18:04.420Z,16.60
2023-01-26T00:20:31.152Z,20.83
2023-01-26T00:22:57.837Z,18.17
2023-01-26T00:25:24.440Z,17.77
2023-01-26T00:27:51.154Z,18.63
2023-01-26T00:30:17.918Z,20.70
2023-01-26T00:32:44.650Z,18.00
2023-01-26T00:35:11.695Z,19.87
2023-01-26T00:37:41.640Z,19.33
2023-01-26T00:40:10.799Z,18.20
2023-01-26T00:42:37.789Z,17.87
2023-01-26T00:45:04.936Z,16.50
2023-01-26T00:47:31.883Z,16.13
2023-01-26T00:49:58.874Z,17.17
2023-01-26T00:52:28.580Z,23.67
2023-01-26T00:54:57.083Z,16.83
2023-01-26T00:57:24.095Z,18.30
2023-01-26T00:59:50.726Z,19.37
2023-01-26T01:02:17.447Z,20.40
2023-01-26T01:04:44.190Z,18.50
2023-01-26T01:07:10.873Z,16.70
2023-01-26T01:09:37.594Z,15.73
2023-01-26T01:12:05.642Z,16.83
2023-01-26T01:14:32.296Z,19.33
2023-01-26T01:16:59.527Z,15.60
2023-01-26T01:19:26.276Z,17.83
2023-01-26T01:21:52.970Z,15.33
2023-01-26T01:24:19.584Z,19.47
2023-01-26T01:26:46.385Z,18.43
2023-01-26T01:29:14.278Z,16.70
2023-01-26T01:31:41.356Z,17.97
2023-01-26T01:34:08.039Z,19.47
2023-01-26T01:36:34.758Z,17.17
2023-01-26T01:39:01.989Z,16.53
2023-01-26T01:41:29.396Z,14.70
2023-01-26T01:44:31.269Z,15.73
2023-01-26T01:47:04.318Z,13.30
2023-01-26T01:49:40.530Z,12.43
2023-01-26T01:52:12.884Z,13.07
2023-01-26T01:54:48.484Z,13.23
2023-01-26T01:57:24.688Z,12.83
2023-01-26T01:59:57.762Z,12.27
2023-01-26T02:02:24.548Z,10.80
2023-01-26T02:04:57.665Z,11.70
2023-01-26T02:07:24.347Z,10.87
2023-01-26T02:09:51.502Z,9.63
2023-01-26T02:12:22.652Z,9.93
2023-01-26T02:14:51.995Z,10.50
2023-01-26T02:17:18.860Z,9.13
2023-01-26T02:19:58.348Z,9.00
2023-01-26T02:23:17.749Z,8.53
2023-01-26T02:25:49.593Z,7.97
2023-01-26T02:28:18.516Z,10.10
2023-01-26T02:30:46.285Z,9.67
2023-01-26T02:33:21.517Z,8.70
2023-01-26T02:35:48.871Z,9.43
2023-01-26T02:38:17.482Z,9.57
2023-01-26T02:40:55.531Z,7.37
2023-01-26T02:43:25.955Z,7.50
2023-01-26T02:45:53.395Z,9.40
2023-01-26T02:48:21.693Z,8.17
2023-01-26T02:50:48.422Z,6.97
2023-01-26T02:53:15.117Z,9.17
2023-01-26T02:55:42.191Z,7.87
2023-01-26T02:58:08.816Z,8.17
2023-01-26T03:00:36.935Z,6.50
2023-01-26T03:03:24.777Z,6.70
2023-01-26T03:05:51.994Z,6.80
2023-01-26T03:08:19.009Z,6.80
2023-01-26T03:10:45.972Z,6.80
2023-01-26T03:13:12.582Z,6.47
2023-01-26T03:15:39.329Z,8.40
2023-01-26T03:18:08.966Z,5.90
2023-01-26T03:20:35.648Z,5.90
2023-01-26T03:23:02.252Z,6.67
2023-01-26T03:25:29.797Z,5.10
2023-01-26T03:27:59.068Z,4.37
2023-01-26T03:30:25.851Z,6.13
2023-01-26T03:32:52.622Z,6.13
2023-01-26T03:35:19.295Z,5.80
2023-01-26T03:37:45.986Z,5.70
2023-01-26T03:40:21.573Z,5.30
2023-01-26T03:42:49.417Z,5.43
2023-01-26T03:45:16.355Z,6.13
2023-01-26T03:47:43.583Z,6.30
2023-01-26T03:50:11.105Z,7.30
2023-01-26T03:52:38.170Z,6.73
2023-01-26T03:55:05.580Z,6.97
2023-01-26T03:57:32.290Z,6.63
2023-01-26T03:59:58.963Z,8.93
2023-01-26T04:02:27.060Z,7.93
2023-01-26T04:04:54.121Z,7.83
2023-01-26T04:07:25.287Z,8.33
2023-01-26T04:09:51.995Z,8.77
2023-01-26T04:12:18.878Z,8.00
2023-01-26T04:14:57.889Z,8.77
2023-01-26T04:17:26.307Z,8.03
2023-01-26T04:19:53.104Z,9.30
2023-01-26T04:22:19.957Z,8.00
2023-01-26T04:24:48.122Z,6.73
2023-01-26T04:27:15.292Z,7.17
2023-01-26T04:29:42.067Z,6.73
2023-01-26T04:32:09.067Z,8.10
2023-01-26T04:34:35.743Z,7.33
2023-01-26T04:37:09.367Z,7.47
2023-01-26T04:39:44.120Z,5.93
2023-01-26T04:42:11.010Z,7.83
2023-01-26T04:44:37.648Z,7.53
2023-01-26T04:47:05.214Z,7.83
2023-01-26T04:49:32.873Z,6.10
2023-01-26T04:51:59.612Z,7.50
2023-01-26T04:54:26.564Z,7.53
2023-01-26T04:56:53.335Z,7.37
2023-01-26T04:59:20.752Z,8.60
2023-01-26T05:01:47.821Z,7.00
2023-01-26T05:04:15.483Z,6.53
2023-01-26T05:06:45.547Z,7.70
2023-01-26T05:09:12.167Z,7.70
2023-01-26T05:11:40.922Z,8.50
2023-01-26T05:14:26.025Z,7.93
2023-01-26T05:17:13.135Z,8.87
2023-01-26T05:19:39.773Z,6.87
2023-01-26T05:22:26.681Z,8.37
2023-01-26T05:25:32.276Z,9.10
2023-01-26T05:28:10.863Z,8.87
2023-01-26T05:30:37.626Z,8.23
2023-01-26T05:33:06.447Z,7.93
2023-01-26T05:35:34.523Z,8.03
2023-01-26T05:38:02.473Z,7.90
2023-01-26T05:40:32.376Z,7.27
2023-01-26T05:42:59.603Z,7.80
2023-01-26T05:45:58.822Z,8.53
2023-01-26T05:48:25.769Z,7.10
2023-01-26T05:50:55.829Z,7.23
2023-01-26T05:53:22.835Z,7.40
2023-01-26T05:55:50.440Z,7.30
2023-01-26T05:58:20.905Z,7.33
2023-01-26T06:00:48.555Z,6.13
2023-01-26T06:03:22.487Z,7.00
2023-01-26T06:05:54.808Z,6.47
2023-01-26T06:08:30.792Z,7.20
2023-01-26T06:11:17.419Z,4.83
2023-01-26T06:13:57.181Z,6.20
2023-01-26T06:16:26.743Z,6.17
2023-01-26T06:18:54.780Z,5.63
2023-01-26T06:21:22.030Z,4.40
2023-01-26T06:23:48.705Z,5.20
2023-01-26T06:26:15.498Z,5.10
2023-01-26T06:28:42.725Z,5.80
2023-01-26T06:31:10.050Z,6.53
2023-01-26T06:33:38.488Z,8.57
2023-01-26T06:36:16.418Z,6.93
2023-01-26T06:38:48.598Z,8.47
2023-01-26T06:41:16.732Z,6.50
2023-01-26T06:43:46.532Z,5.13
2023-01-26T06:46:14.198Z,5.07
2023-01-26T06:48:40.923Z,5.30
2023-01-26T06:51:16.899Z,5.47
2023-01-26T06:53:54.893Z,5.23
2023-01-26T06:56:28.215Z,5.37
2023-01-26T06:59:15.181Z,5.60
2023-01-26T07:02:20.658Z,5.57
2023-01-26T07:04:48.452Z,7.93
2023-01-26T07:07:15.211Z,6.60
2023-01-26T07:09:42.184Z,6.57
2023-01-26T07:12:08.851Z,5.63
2023-01-26T07:14:35.550Z,6.13
2023-01-26T07:17:02.373Z,5.57
2023-01-26T07:19:29.158Z,7.47
2023-01-26T07:21:55.835Z,5.90
2023-01-26T07:24:22.638Z,5.93
2023-01-26T07:26:49.385Z,6.67
2023-01-26T07:29:16.088Z,6.20
2023-01-26T07:31:42.815Z,7.73
2023-01-26T07:34:09.832Z,11.03
2023-01-26T07:36:36.498Z,8.77
2023-01-26T07:39:03.461Z,8.13
2023-01-26T07:41:30.093Z,7.70
2023-01-26T07:43:57.513Z,8.17
2023-01-26T07:46:24.293Z,8.17
2023-01-26T07:48:51.307Z,8.47
2023-01-26T07:51:17.915Z,9.63
2023-01-26T07:53:44.774Z,8.43
2023-01-26T07:56:14.167Z,8.77
2023-01-26T07:58:41.187Z,7.57
2023-01-26T08:01:13.687Z,8.77
2023-01-26T08:03:41.598Z,8.23
2023-01-26T08:06:11.537Z,7.70
2023-01-26T08:08:39.534Z,8.47
2023-01-26T08:11:06.445Z,8.07
2023-01-26T08:13:35.681Z,10.00
2023-01-26T08:16:11.091Z,8.87
2023-01-26T08:18:47.781Z,8.73
2023-01-26T08:21:17.275Z,8.27
2023-01-26T08:23:47.871Z,10.90
2023-01-26T08:26:14.755Z,12.70
2023-01-26T08:28:41.676Z,16.20
2023-01-26T08:31:17.806Z,11.23
2023-01-26T08:33:45.824Z,9.73
2023-01-26T08:36:15.120Z,9.47
2023-01-26T08:38:42.401Z,8.33
2023-01-26T08:41:10.043Z,17.23
2023-01-26T08:43:37.151Z,13.90
2023-01-26T08:46:05.415Z,11.97
2023-01-26T08:48:32.373Z,15.27
2023-01-26T08:51:01.172Z,14.00
2023-01-26T08:53:31.330Z,15.60
2023-01-26T08:56:00.437Z,16.57
2023-01-26T08:58:27.223Z,19.77
2023-01-26T09:00:54.307Z,18.50
2023-01-26T09:03:21.410Z,18.13
2023-01-26T09:05:48.053Z,22.03
2023-01-26T09:08:14.946Z,29.80
2023-01-26T09:10:41.783Z,18.07
2023-01-26T09:13:09.420Z,14.77
2023-01-26T09:15:38.499Z,15.50
2023-01-26T09:18:05.307Z,16.37
2023-01-26T09:20:31.919Z,15.20
2023-01-26T09:22:58.698Z,16.63
2023-01-26T09:25:25.418Z,20.03
2023-01-26T09:27:52.079Z,17.47
2023-01-26T09:30:18.863Z,16.00
2023-01-26T09:32:45.894Z,13.87
2023-01-26T09:35:14.738Z,13.77
2023-01-26T09:37:44.164Z,14.87
2023-01-26T09:40:26.355Z,14.73
2023-01-26T09:43:09.276Z,15.23
2023-01-26T09:45:47.098Z,15.23
2023-01-26T09:48:32.349Z,14.67
2023-01-26T09:51:14.384Z,14.37
2023-01-26T09:53:47.879Z,16.07
2023-01-26T09:56:20.128Z,15.87
2023-01-26T09:58:59.677Z,17.30
2023-01-26T10:01:45.058Z,14.97
2023-01-26T10:04:37.788Z,18.10
2023-01-26T10:07:14.704Z,16.53
2023-01-26T10:09:49.103Z,18.77
2023-01-26T10:12:24.434Z,20.37
2023-01-26T10:15:25.223Z,17.73
2023-01-26T10:17:53.967Z,18.37
2023-01-26T10:20:55.636Z,17.47
2023-01-26T10:23:32.073Z,18.37
2023-01-26T10:26:25.248Z,18.60
2023-01-26T10:28:53.047Z,19.87
2023-01-26T10:31:27.653Z,20.90
2023-01-26T10:33:56.120Z,19.43
2023-01-26T10:36:23.297Z,21.83
2023-01-26T10:38:51.474Z,19.10
2023-01-26T10:41:27.355Z,16.93
2023-01-26T10:43:59.387Z,16.73
2023-01-26T10:46:38.432Z,18.33
2023-01-26T10:49:08.000Z,16.37
2023-01-26T10:51:37.366Z,20.53
2023-01-26T10:54:31.363Z,22.77
2023-01-26T10:57:03.482Z,16.10
2023-01-26T10:59:57.379Z,14.13
2023-01-26T11:02:27.917Z,16.13
2023-01-26T11:05:06.966Z,15.33
2023-01-26T11:07:38.693Z,12.57
2023-01-26T11:10:22.734Z,20.07
2023-01-26T11:13:24.317Z,15.87
2023-01-26T11:16:03.040Z,14.33
2023-01-26T11:18:57.573Z,13.30
2023-01-26T11:21:24.229Z,14.53
2023-01-26T11:24:47.977Z,14.30
2023-01-26T11:27:45.484Z,14.23
2023-01-26T11:30:47.575Z,14.73
2023-01-26T11:33:23.877Z,15.00
2023-01-26T11:35:59.315Z,15.10
2023-01-26T11:38:38.442Z,15.60
2023-01-26T11:41:28.069Z,15.80
2023-01-26T11:43:54.782Z,16.17
2023-01-26T11:46:38.861Z,14.33
2023-01-26T11:49:47.853Z,15.93
2023-01-26T11:52:33.166Z,15.63
2023-01-26T11:55:24.334Z,14.93
2023-01-26T11:58:03.051Z,14.87
2023-01-26T12:00:44.214Z,15.97
2023-01-26T12:03:43.774Z,15.40
2023-01-26T12:06:26.142Z,14.63
2023-01-26T12:09:02.276Z,15.53
2023-01-26T12:11:35.577Z,14.67
2023-01-26T12:14:36.295Z,13.57
2023-01-26T12:17:17.299Z,13.63
2023-01-26T12:19:56.398Z,14.43
2023-01-26T12:22:37.498Z,13.60
2023-01-26T12:25:30.085Z,11.23
2023-01-26T12:28:00.105Z,13.30
2023-01-26T12:30:26.880Z,12.33
2023-01-26T12:32:53.748Z,14.10
2023-01-26T12:35:37.589Z,14.33
2023-01-26T12:38:18.550Z,13.57
2023-01-26T12:41:09.244Z,14.27
2023-01-26T12:43:47.967Z,14.40
2023-01-26T12:46:16.385Z,12.30
2023-01-26T12:48:46.465Z,11.33
2023-01-26T12:51:35.499Z,11.33
2023-01-26T12:54:21.403Z,10.80
2023-01-26T12:56:56.981Z,11.23
2023-01-26T12:59:47.961Z,11.33
2023-01-26T13:02:15.630Z,11.67
2023-01-26T13:04:48.859Z,9.13
2023-01-26T13:07:31.922Z,11.23
2023-01-26T13:10:14.345Z,10.10
2023-01-26T13:12:48.865Z,9.67
2023-01-26T13:15:17.742Z,10.77
2023-01-26T13:17:52.187Z,10.10
2023-01-26T13:20:28.190Z,10.20
2023-01-26T13:22:56.094Z,10.70
2023-01-26T13:25:31.942Z,11.27
2023-01-26T13:28:03.783Z,11.43
2023-01-26T13:30:43.977Z,11.13
2023-01-26T13:33:24.601Z,11.90
2023-01-26T13:35:54.689Z,10.77
2023-01-26T13:38:38.443Z,11.17
2023-01-26T13:41:18.817Z,10.43
2023-01-26T13:43:52.585Z,11.43
2023-01-26T13:46:25.299Z,12.10
2023-01-26T13:48:55.119Z,11.10
2023-01-26T13:51:33.020Z,12.60
2023-01-26T13:54:07.177Z,13.77
2023-01-26T13:56:39.273Z,15.10
2023-01-26T13:59:07.424Z,14.43
2023-01-26T14:01:34.205Z,12.43
2023-01-26T14:04:08.035Z,12.80
2023-01-26T14:06:37.117Z,12.93
2023-01-26T14:09:05.932Z,12.30
2023-01-26T14:11:33.786Z,12.80
2023-01-26T14:14:02.184Z,12.47
2023-01-26T14:16:30.637Z,14.00
2023-01-26T14:19:13.568Z,14.40
2023-01-26T14:21:47.640Z,15.70
2023-01-26T14:24:14.894Z,13.43
2023-01-26T14:26:42.693Z,12.60
2023-01-26T14:29:21.226Z,13.63
2023-01-26T14:31:48.701Z,12.30
2023-01-26T14:34:23.266Z,14.07
2023-01-26T14:37:06.480Z,14.77
2023-01-26T14:39:33.232Z,14.67
2023-01-26T14:42:00.661Z,16.43
2023-01-26T14:44:27.436Z,15.10
2023-01-26T14:47:26.412Z,16.63
2023-01-26T14:49:55.762Z,13.00
2023-01-26T14:52:39.965Z,14.07
2023-01-26T14:55:18.895Z,12.10
2023-01-26T14:57:45.696Z,12.77
2023-01-26T15:00:27.385Z,11.67
2023-01-26T15:02:57.149Z,12.67
2023-01-26T15:05:35.719Z,14.13
2023-01-26T15:08:26.855Z,12.03
2023-01-26T15:10:55.927Z,14.07
2023-01-26T15:13:31.063Z,15.10
2023-01-26T15:16:06.345Z,12.93
2023-01-26T15:18:34.304Z,16.13
2023-01-26T15:21:13.206Z,16.00
2023-01-26T15:23:45.272Z,18.03
2023-01-26T15:26:26.366Z,14.57
2023-01-26T15:28:58.974Z,15.43
2023-01-26T15:31:34.340Z,17.20
2023-01-26T15:34:02.034Z,15.73
2023-01-26T15:36:48.100Z,14.23
2023-01-26T15:39:18.518Z,16.30
2023-01-26T15:41:58.081Z,16.23
2023-01-26T15:44:24.891Z,15.97
2023-01-26T15:46:51.658Z,15.77
2023-01-26T15:49:18.534Z,18.13
2023-01-26T15:51:45.528Z,17.17
2023-01-26T15:54:12.306Z,17.37
2023-01-26T15:56:38.938Z,17.10
2023-01-26T15:59:06.253Z,16.57
2023-01-26T16:01:33.136Z,16.80
2023-01-26T16:03:59.902Z,20.07
2023-01-26T16:06:32.641Z,20.73
2023-01-26T16:08:59.765Z,236.40
2023-01-26T16:11:30.136Z,39.17
2023-01-26T16:14:04.564Z,26.07
2023-01-26T16:16:32.376Z,23.60
2023-01-26T16:18:59.365Z,18.97
2023-01-26T16:21:29.339Z,22.13
2023-01-26T16:23:55.993Z,20.37
2023-01-26T16:26:22.914Z,17.67
2023-01-26T16:28:49.606Z,19.47
2023-01-26T16:31:23.397Z,19.00
2023-01-26T16:33:50.753Z,18.43
2023-01-26T16:36:19.218Z,18.13
2023-01-26T16:38:47.103Z,21.00
2023-01-26T16:41:15.561Z,23.30
2023-01-26T16:43:43.140Z,18.97
2023-01-26T16:46:10.155Z,18.73
2023-01-26T16:48:39.189Z,19.77
2023-01-26T16:51:20.107Z,20.53
2023-01-26T16:53:47.860Z,20.30
2023-01-26T16:56:15.409Z,19.00
2023-01-26T16:58:42.240Z,22.90
2023-01-26T17:01:22.415Z,18.27
2023-01-26T17:03:49.516Z,20.50
2023-01-26T17:06:17.317Z,18.20
2023-01-26T17:08:44.188Z,18.73
2023-01-26T17:11:29.513Z,20.50
2023-01-26T17:13:56.645Z,20.10
2023-01-26T17:16:25.856Z,22.07
2023-01-26T17:18:52.805Z,23.07
2023-01-26T17:21:20.006Z,20.43
2023-01-26T17:23:51.325Z,20.40
2023-01-26T17:26:19.690Z,22.97
2023-01-26T17:28:47.871Z,22.07
2023-01-26T17:31:17.396Z,24.27
2023-01-26T17:33:46.017Z,22.00
2023-01-26T17:36:13.561Z,22.47
2023-01-26T17:38:40.737Z,23.47
2023-01-26T17:41:07.688Z,23.30
2023-01-26T17:43:34.545Z,25.53
2023-01-26T17:46:10.420Z,22.70
2023-01-26T17:48:37.302Z,26.80
2023-01-26T17:51:12.637Z,23.60
2023-01-26T17:53:40.886Z,24.47
2023-01-26T17:56:09.395Z,24.93
2023-01-26T17:58:36.907Z,25.90
2023-01-26T18:01:06.237Z,23.57
2023-01-26T18:03:33.703Z,26.10
2023-01-26T18:06:00.742Z,26.93
2023-01-26T18:08:27.564Z,24.77
2023-01-26T18:11:02.291Z,25.93
2023-01-26T18:13:30.112Z,26.83
2023-01-26T18:15:56.782Z,28.27
2023-01-26T18:18:29.097Z,26.00
2023-01-26T18:20:56.345Z,25.43
2023-01-26T18:23:24.400Z,25.90
2023-01-26T18:25:51.815Z,31.40
2023-01-26T18:28:18.600Z,28.47
2023-01-26T18:30:45.552Z,25.20
2023-01-26T18:33:12.578Z,29.17
2023-01-26T18:35:39.320Z,27.17
2023-01-26T18:38:05.947Z,30.07
2023-01-26T18:40:32.743Z,26.77
2023-01-26T18:42:59.328Z,30.07
2023-01-26T18:45:26.077Z,28.87
2023-01-26T18:47:52.896Z,27.60
2023-01-26T18:50:19.677Z,25.10
2023-01-26T18:52:46.286Z,29.73
2023-01-26T18:55:13.716Z,30.67
2023-01-26T18:57:40.620Z,31.50
2023-01-26T19:00:08.933Z,26.30
2023-01-26T19:02:35.715Z,27.57
2023-01-26T19:05:02.528Z,31.97
2023-01-26T19:07:29.163Z,27.40
2023-01-26T19:09:55.889Z,30.87
2023-01-26T19:12:22.502Z,27.67
2023-01-26T19:14:49.196Z,27.27
2023-01-26T19:17:15.937Z,26.80
2023-01-26T19:19:42.662Z,27.77
2023-01-26T19:22:09.277Z,30.07
2023-01-26T19:24:35.977Z,29.60
2023-01-26T19:27:02.653Z,29.43
2023-01-26T19:29:29.336Z,32.60
2023-01-26T19:31:56.048Z,28.73
2023-01-26T19:34:22.825Z,27.40
2023-01-26T19:36:49.475Z,27.90
2023-01-26T19:39:16.336Z,29.33
2023-01-26T19:41:42.929Z,30.80
2023-01-26T19:44:09.688Z,31.83
2023-01-26T19:46:38.773Z,30.67
2023-01-26T19:49:05.451Z,28.07
2023-01-26T19:51:32.068Z,29.00
2023-01-26T19:53:59.683Z,29.23
2023-01-26T19:56:29.457Z,33.67
2023-01-26T19:59:01.682Z,34.20
2023-01-26T20:01:29.611Z,33.67
2023-01-26T20:03:59.275Z,32.70
2023-01-26T20:06:28.668Z,34.17
2023-01-26T20:08:55.979Z,33.70
2023-01-26T20:11:23.480Z,35.97
2023-01-26T20:13:58.034Z,31.90
2023-01-26T20:16:25.373Z,27.53
2023-01-26T20:18:52.119Z,29.97
2023-01-26T20:21:19.011Z,34.27
2023-01-26T20:23:53.887Z,30.93
2023-01-26T20:26:21.802Z,28.43
2023-01-26T20:28:48.645Z,29.97
2023-01-26T20:31:18.491Z,31.83
2023-01-26T20:33:47.987Z,27.13
2023-01-26T20:36:19.287Z,31.17
2023-01-26T20:38:47.677Z,31.20
2023-01-26T20:41:18.332Z,37.07
2023-01-26T20:43:58.783Z,30.70
2023-01-26T20:46:28.448Z,34.80
2023-01-26T20:48:55.821Z,38.63
2023-01-26T20:51:26.574Z,30.57
2023-01-26T20:53:53.293Z,32.20
2023-01-26T20:56:21.394Z,34.40
2023-01-26T20:58:48.110Z,33.27
2023-01-26T21:01:17.460Z,37.90
2023-01-26T21:03:45.044Z,40.93
2023-01-26T21:06:15.917Z,34.80
2023-01-26T21:08:42.676Z,35.20
2023-01-26T21:11:12.918Z,34.27
2023-01-26T21:13:40.090Z,38.17
2023-01-26T21:16:07.911Z,35.90
2023-01-26T21:18:34.746Z,49.00
2023-01-26T21:21:04.023Z,41.30
2023-01-26T21:23:33.220Z,42.87
2023-01-26T21:26:03.549Z,41.50
2023-01-26T21:28:30.835Z,43.73
2023-01-26T21:31:03.761Z,51.80
2023-01-26T21:33:32.226Z,43.63
2023-01-26T21:36:00.632Z,41.53
2023-01-26T21:38:31.341Z,45.47
2023-01-26T21:40:59.527Z,45.43
2023-01-26T21:43:26.827Z,45.07
2023-01-26T21:45:57.730Z,49.93
2023-01-26T21:48:25.251Z,45.30
2023-01-26T21:50:56.055Z,44.07
2023-01-26T21:53:24.095Z,50.57
2023-01-26T21:55:50.747Z,47.20
2023-01-26T21:58:17.450Z,45.23
2023-01-26T22:00:44.146Z,41.90
2023-01-26T22:03:10.880Z,46.33
2023-01-26T22:05:37.484Z,41.87
2023-01-26T22:08:05.216Z,50.43
2023-01-26T22:10:32.548Z,39.33
2023-01-26T22:12:59.196Z,35.07
2023-01-26T22:15:25.802Z,40.07
2023-01-26T22:17:52.515Z,37.47
2023-01-26T22:20:19.114Z,42.77
2023-01-26T22:22:45.895Z,48.73
2023-01-26T22:25:12.529Z,45.23
2023-01-26T22:27:39.912Z,41.43
2023-01-26T22:30:07.228Z,39.77
2023-01-26T22:32:34.232Z,40.93
2023-01-26T22:35:00.846Z,38.60
2023-01-26T22:37:27.614Z,47.47
2023-01-26T22:39:54.303Z,51.03
2023-01-26T22:42:21.445Z,47.03
2023-01-26T22:44:48.246Z,47.27
2023-01-26T22:47:14.925Z,46.17
2023-01-26T22:49:41.515Z,43.97
2023-01-26T22:52:08.333Z,43.93
2023-01-26T22:54:34.965Z,39.90
2023-01-26T22:57:01.775Z,48.03
2023-01-26T22:59:28.430Z,49.30
2023-01-26T23:01:55.128Z,43.53
2023-01-26T23:04:21.731Z,46.03
2023-01-26T23:06:48.531Z,35.90
2023-01-26T23:09:15.152Z,38.50
2023-01-26T23:11:41.880Z,36.53
2023-01-26T23:14:08.586Z,36.90
2023-01-26T23:16:35.350Z,43.87
2023-01-26T23:19:01.975Z,33.90
2023-01-26T23:21:29.714Z,37.87
2023-01-26T23:23:57.052Z,32.10
2023-01-26T23:26:23.921Z,40.53
2023-01-26T23:28:50.714Z,42.77
2023-01-26T23:31:19.475Z,40.53
2023-01-26T23:33:46.613Z,60.80
2023-01-26T23:36:14.343Z,46.73
2023-01-26T23:38:41.155Z,46.67
2023-01-26T23:41:08.110Z,50.10
2023-01-26T23:43:34.757Z,48.17
2023-01-26T23:46:01.399Z,52.37
2023-01-26T23:48:28.158Z,51.47
2023-01-26T23:50:56.393Z,50.97
2023-01-26T23:53:23.397Z,51.63
2023-01-26T23:55:50.550Z,53.23
2023-01-26T23:58:17.226Z,63.47
